sensor_id;sensor_type;location;lat;lon;timestamp;pressure;altitude;pressure_sealevel;temperature;humidity
34584;BME280;53696;52.738;4.752;2023-04-28T00:00:02;101497.22;;;16.21;56.05
34584;BME280;53696;52.738;4.752;2023-04-28T00:02:31;101493.69;;;16.20;55.64
34584;BME280;53696;52.738;4.752;2023-04-28T00:04:59;101487.47;;;16.20;56.04
34584;BME280;53696;52.738;4.752;2023-04-28T00:07:27;101483.06;;;16.19;55.65
34584;BME280;53696;52.738;4.752;2023-04-28T00:09:55;101475.06;;;16.19;56.06
34584;BME280;53696;52.738;4.752;2023-04-28T00:12:23;101477.72;;;16.17;56.02
34584;BME280;53696;52.738;4.752;2023-04-28T00:14:51;101480.41;;;16.17;56.04
34584;BME280;53696;52.738;4.752;2023-04-28T00:17:21;101479.56;;;16.15;55.74
34584;BME280;53696;52.738;4.752;2023-04-28T00:19:49;101470.66;;;16.15;55.87
34584;BME280;53696;52.738;4.752;2023-04-28T00:22:18;101463.56;;;16.14;56.10
34584;BME280;53696;52.738;4.752;2023-04-28T00:24:46;101456.47;;;16.14;55.64
34584;BME280;53696;52.738;4.752;2023-04-28T00:27:14;101447.56;;;16.14;56.09
34584;BME280;53696;52.738;4.752;2023-04-28T00:29:42;101454.66;;;16.15;55.71
34584;BME280;53696;52.738;4.752;2023-04-28T00:32:10;101446.69;;;16.13;55.72
34584;BME280;53696;52.738;4.752;2023-04-28T00:34:40;101446.69;;;16.13;55.65
34584;BME280;53696;52.738;4.752;2023-04-28T00:37:08;101429.78;;;16.13;55.67
34584;BME280;53696;52.738;4.752;2023-04-28T00:39:36;101433.38;;;16.11;56.16
34584;BME280;53696;52.738;4.752;2023-04-28T00:42:04;101428.91;;;16.12;56.08
34584;BME280;53696;52.738;4.752;2023-04-28T00:44:32;101424.50;;;16.11;55.84
34584;BME280;53696;52.738;4.752;2023-04-28T00:47:00;101432.50;;;16.11;55.61
34584;BME280;53696;52.738;4.752;2023-04-28T00:49:29;101425.38;;;16.10;56.18
34584;BME280;53696;52.738;4.752;2023-04-28T00:51:58;101409.38;;;16.10;56.07
34584;BME280;53696;52.738;4.752;2023-04-28T00:54:29;101412.06;;;16.10;56.08
34584;BME280;53696;52.738;4.752;2023-04-28T00:56:57;101413.84;;;16.09;55.88
34584;BME280;53696;52.738;4.752;2023-04-28T00:59:25;101407.63;;;16.09;56.06
34584;BME280;53696;52.738;4.752;2023-04-28T01:01:53;101401.47;;;16.07;55.97
34584;BME280;53696;52.738;4.752;2023-04-28T01:04:22;101406.78;;;16.07;55.75
34584;BME280;53696;52.738;4.752;2023-04-28T01:06:51;101402.38;;;16.06;55.88
34584;BME280;53696;52.738;4.752;2023-04-28T01:09:21;101405.03;;;16.04;55.84
34584;BME280;53696;52.738;4.752;2023-04-28T01:11:49;101415.72;;;16.06;56.15
34584;BME280;53696;52.738;4.752;2023-04-28T01:14:17;101395.28;;;16.05;55.76
34584;BME280;53696;52.738;4.752;2023-04-28T01:16:44;101400.59;;;16.05;56.04
34584;BME280;53696;52.738;4.752;2023-04-28T01:19:17;101396.13;;;16.05;55.97
34584;BME280;53696;52.738;4.752;2023-04-28T01:21:46;101391.75;;;16.03;55.87
34584;BME280;53696;52.738;4.752;2023-04-28T01:24:16;101392.66;;;16.02;55.68
34584;BME280;53696;52.738;4.752;2023-04-28T01:26:44;101393.53;;;16.02;55.64
34584;BME280;53696;52.738;4.752;2023-04-28T01:29:13;101391.75;;;16.03;55.94
34584;BME280;53696;52.738;4.752;2023-04-28T01:31:40;101389.13;;;16.01;55.58
34584;BME280;53696;52.738;4.752;2023-04-28T01:34:08;101385.56;;;16.01;56.00
34584;BME280;53696;52.738;4.752;2023-04-28T01:36:36;101388.22;;;16.01;55.91
34584;BME280;53696;52.738;4.752;2023-04-28T01:39:04;101382.00;;;16.00;56.05
34584;BME280;53696;52.738;4.752;2023-04-28T01:41:34;101373.16;;;16.00;55.83
34584;BME280;53696;52.738;4.752;2023-04-28T01:44:02;101368.69;;;16.00;55.65
34584;BME280;53696;52.738;4.752;2023-04-28T01:46:31;101367.81;;;15.98;56.07
34584;BME280;53696;52.738;4.752;2023-04-28T01:48:59;101374.06;;;15.99;55.63
34584;BME280;53696;52.738;4.752;2023-04-28T01:51:27;101372.28;;;15.98;55.60
34584;BME280;53696;52.738;4.752;2023-04-28T01:53:55;101362.47;;;15.98;55.67
34584;BME280;53696;52.738;4.752;2023-04-28T01:56:23;101367.88;;;15.97;55.49
34584;BME280;53696;52.738;4.752;2023-04-28T01:58:52;101363.44;;;15.95;55.77
34584;BME280;53696;52.738;4.752;2023-04-28T02:01:20;101359.00;;;15.94;55.69
34584;BME280;53696;52.738;4.752;2023-04-28T02:03:48;101356.34;;;15.94;55.51
34584;BME280;53696;52.738;4.752;2023-04-28T02:06:16;101356.34;;;15.94;56.10
34584;BME280;53696;52.738;4.752;2023-04-28T02:08:44;101351.00;;;15.94;55.60
34584;BME280;53696;52.738;4.752;2023-04-28T02:11:12;101347.47;;;15.94;55.85
34584;BME280;53696;52.738;4.752;2023-04-28T02:13:40;101343.00;;;15.94;55.71
34584;BME280;53696;52.738;4.752;2023-04-28T02:16:09;101335.94;;;15.92;55.74
34584;BME280;53696;52.738;4.752;2023-04-28T02:18:37;101325.28;;;15.92;55.67
34584;BME280;53696;52.738;4.752;2023-04-28T02:21:08;101324.38;;;15.93;55.65
34584;BME280;53696;52.738;4.752;2023-04-28T02:23:37;101318.16;;;15.91;55.54
34584;BME280;53696;52.738;4.752;2023-04-28T02:26:05;101309.25;;;15.92;55.53
34584;BME280;53696;52.738;4.752;2023-04-28T02:28:33;101301.31;;;15.90;56.10
34584;BME280;53696;52.738;4.752;2023-04-28T02:31:06;101301.31;;;15.90;55.74
34584;BME280;53696;52.738;4.752;2023-04-28T02:33:36;101303.06;;;15.91;55.80
34584;BME280;53696;52.738;4.752;2023-04-28T02:36:05;101288.88;;;15.89;55.50
34584;BME280;53696;52.738;4.752;2023-04-28T02:38:33;101279.06;;;15.90;55.59
34584;BME280;53696;52.738;4.752;2023-04-28T02:41:03;101283.53;;;15.89;55.90
34584;BME280;53696;52.738;4.752;2023-04-28T02:43:31;101277.34;;;15.87;55.57
34584;BME280;53696;52.738;4.752;2023-04-28T02:45:59;101274.69;;;15.87;55.67
34584;BME280;53696;52.738;4.752;2023-04-28T02:48:27;101263.16;;;15.87;55.74
34584;BME280;53696;52.738;4.752;2023-04-28T02:50:56;101273.81;;;15.87;55.84
34584;BME280;53696;52.738;4.752;2023-04-28T02:53:24;101268.47;;;15.87;55.69
34584;BME280;53696;52.738;4.752;2023-04-28T02:55:52;101267.59;;;15.86;56.05
34584;BME280;53696;52.738;4.752;2023-04-28T02:58:20;101272.91;;;15.86;55.88
34584;BME280;53696;52.738;4.752;2023-04-28T03:00:48;101264.06;;;15.86;55.95
34584;BME280;53696;52.738;4.752;2023-04-28T03:03:16;101263.16;;;15.85;55.86
34584;BME280;53696;52.738;4.752;2023-04-28T03:05:45;101261.38;;;15.86;55.46
34584;BME280;53696;52.738;4.752;2023-04-28T03:08:14;101248.09;;;15.84;55.57
34584;BME280;53696;52.738;4.752;2023-04-28T03:10:42;101246.34;;;15.83;55.93
34584;BME280;53696;52.738;4.752;2023-04-28T03:13:09;101241.88;;;15.84;55.68
34584;BME280;53696;52.738;4.752;2023-04-28T03:15:38;101239.19;;;15.84;55.58
34584;BME280;53696;52.738;4.752;2023-04-28T03:18:06;101236.56;;;15.82;55.58
34584;BME280;53696;52.738;4.752;2023-04-28T03:20:34;101239.25;;;15.82;55.78
34584;BME280;53696;52.738;4.752;2023-04-28T03:23:02;101231.28;;;15.81;55.80
34584;BME280;53696;52.738;4.752;2023-04-28T03:25:31;101228.56;;;15.82;55.81
34584;BME280;53696;52.738;4.752;2023-04-28T03:27:59;101227.72;;;15.80;55.49
34584;BME280;53696;52.738;4.752;2023-04-28T03:30:27;101235.72;;;15.80;55.63
34584;BME280;53696;52.738;4.752;2023-04-28T03:32:55;101218.84;;;15.79;55.86
34584;BME280;53696;52.738;4.752;2023-04-28T03:35:23;101229.53;;;15.78;55.94
34584;BME280;53696;52.738;4.752;2023-04-28T03:37:51;101218.00;;;15.77;55.94
34584;BME280;53696;52.738;4.752;2023-04-28T03:40:19;101213.53;;;15.79;55.88
34584;BME280;53696;52.738;4.752;2023-04-28T03:42:48;101201.13;;;15.77;55.89
34584;BME280;53696;52.738;4.752;2023-04-28T03:45:16;101192.25;;;15.76;55.53
34584;BME280;53696;52.738;4.752;2023-04-28T03:47:45;101188.72;;;15.74;55.58
34584;BME280;53696;52.738;4.752;2023-04-28T03:50:13;101186.03;;;15.76;55.79
34584;BME280;53696;52.738;4.752;2023-04-28T03:52:40;101183.38;;;15.76;55.49
34584;BME280;53696;52.738;4.752;2023-04-28T03:55:09;101178.03;;;15.76;56.05
34584;BME280;53696;52.738;4.752;2023-04-28T03:57:37;101174.47;;;15.75;56.03
34584;BME280;53696;52.738;4.752;2023-04-28T04:00:08;101173.63;;;15.75;55.74
34584;BME280;53696;52.738;4.752;2023-04-28T04:02:36;101173.63;;;15.75;55.60
34584;BME280;53696;52.738;4.752;2023-04-28T04:05:04;101173.63;;;15.75;56.03
34584;BME280;53696;52.738;4.752;2023-04-28T04:07:32;101170.09;;;15.73;55.87
34584;BME280;53696;52.738;4.752;2023-04-28T04:10:01;101166.56;;;15.72;56.12
34584;BME280;53696;52.738;4.752;2023-04-28T04:12:30;101171.91;;;15.72;55.88
34584;BME280;53696;52.738;4.752;2023-04-28T04:14:58;101170.09;;;15.73;56.06
34584;BME280;53696;52.738;4.752;2023-04-28T04:17:27;101162.13;;;15.71;56.00
34584;BME280;53696;52.738;4.752;2023-04-28T04:19:56;101156.75;;;15.73;55.88
34584;BME280;53696;52.738;4.752;2023-04-28T04:22:24;101150.56;;;15.71;55.48
34584;BME280;53696;52.738;4.752;2023-04-28T04:24:51;101159.50;;;15.70;55.70
34584;BME280;53696;52.738;4.752;2023-04-28T04:27:19;101160.44;;;15.69;55.67
34584;BME280;53696;52.738;4.752;2023-04-28T04:29:47;101166.59;;;15.71;55.74
34584;BME280;53696;52.738;4.752;2023-04-28T04:32:15;101157.66;;;15.72;55.59
34584;BME280;53696;52.738;4.752;2023-04-28T04:34:44;101151.47;;;15.71;55.47
34584;BME280;53696;52.738;4.752;2023-04-28T04:37:12;101147.97;;;15.69;55.96
34584;BME280;53696;52.738;4.752;2023-04-28T04:39:40;101142.66;;;15.68;56.06
34584;BME280;53696;52.738;4.752;2023-04-28T04:42:08;101142.63;;;15.69;55.97
34584;BME280;53696;52.738;4.752;2023-04-28T04:44:50;101130.19;;;15.68;56.09
34584;BME280;53696;52.738;4.752;2023-04-28T04:47:17;101140.88;;;15.68;55.97
34584;BME280;53696;52.738;4.752;2023-04-28T04:49:47;101124.97;;;15.65;55.79
34584;BME280;53696;52.738;4.752;2023-04-28T04:52:16;101123.22;;;15.62;55.66
34584;BME280;53696;52.738;4.752;2023-04-28T04:54:44;101115.19;;;15.64;55.65
34584;BME280;53696;52.738;4.752;2023-04-28T04:57:12;101118.72;;;15.64;55.66
34584;BME280;53696;52.738;4.752;2023-04-28T04:59:40;101108.06;;;15.64;56.17
34584;BME280;53696;52.738;4.752;2023-04-28T05:02:08;101102.69;;;15.66;55.79
34584;BME280;53696;52.738;4.752;2023-04-28T05:04:36;101110.72;;;15.64;55.88
34584;BME280;53696;52.738;4.752;2023-04-28T05:07:06;101110.78;;;15.63;56.14
34584;BME280;53696;52.738;4.752;2023-04-28T05:09:34;101108.09;;;15.63;55.67
34584;BME280;53696;52.738;4.752;2023-04-28T05:12:02;101117.88;;;15.62;55.63
34584;BME280;53696;52.738;4.752;2023-04-28T05:14:30;101109.03;;;15.62;56.05
34584;BME280;53696;52.738;4.752;2023-04-28T05:16:58;101118.78;;;15.63;56.25
34584;BME280;53696;52.738;4.752;2023-04-28T05:19:26;101115.22;;;15.62;55.72
34584;BME280;53696;52.738;4.752;2023-04-28T05:21:54;101125.94;;;15.61;56.07
34584;BME280;53696;52.738;4.752;2023-04-28T05:24:23;101132.16;;;15.61;56.16
34584;BME280;53696;52.738;4.752;2023-04-28T05:26:52;101134.81;;;15.61;56.05
34584;BME280;53696;52.738;4.752;2023-04-28T05:29:20;101138.34;;;15.62;55.82
34584;BME280;53696;52.738;4.752;2023-04-28T05:31:48;101131.22;;;15.62;55.95
34584;BME280;53696;52.738;4.752;2023-04-28T05:34:16;101126.81;;;15.61;55.85
34584;BME280;53696;52.738;4.752;2023-04-28T05:36:45;101131.31;;;15.59;55.97
34584;BME280;53696;52.738;4.752;2023-04-28T05:39:13;101130.41;;;15.59;55.84
34584;BME280;53696;52.738;4.752;2023-04-28T05:41:42;101132.22;;;15.58;56.25
34584;BME280;53696;52.738;4.752;2023-04-28T05:44:11;101125.97;;;15.59;56.31
34584;BME280;53696;52.738;4.752;2023-04-28T05:46:39;101135.75;;;15.59;55.91
34584;BME280;53696;52.738;4.752;2023-04-28T05:49:08;101134.88;;;15.58;55.89
34584;BME280;53696;52.738;4.752;2023-04-28T05:51:37;101142.03;;;15.56;56.29
34584;BME280;53696;52.738;4.752;2023-04-28T05:54:05;101141.16;;;15.56;55.79
34584;BME280;53696;52.738;4.752;2023-04-28T05:56:33;101147.34;;;15.56;56.45
34584;BME280;53696;52.738;4.752;2023-04-28T05:59:02;101141.13;;;15.57;56.26
34584;BME280;53696;52.738;4.752;2023-04-28T06:01:30;101147.34;;;15.56;56.21
34584;BME280;53696;52.738;4.752;2023-04-28T06:03:59;101146.44;;;15.57;56.16
34584;BME280;53696;52.738;4.752;2023-04-28T06:06:27;101149.13;;;15.57;55.93
34584;BME280;53696;52.738;4.752;2023-04-28T06:08:55;101134.88;;;15.58;56.05
34584;BME280;53696;52.738;4.752;2023-04-28T06:11:23;101127.78;;;15.57;56.19
34584;BME280;53696;52.738;4.752;2023-04-28T06:13:51;101127.78;;;15.57;56.00
34584;BME280;53696;52.738;4.752;2023-04-28T06:16:20;101125.16;;;15.56;55.94
34584;BME280;53696;52.738;4.752;2023-04-28T06:18:49;101116.28;;;15.55;55.94
34584;BME280;53696;52.738;4.752;2023-04-28T06:21:17;101110.03;;;15.56;56.40
34584;BME280;53696;52.738;4.752;2023-04-28T06:23:47;101116.28;;;15.55;55.94
34584;BME280;53696;52.738;4.752;2023-04-28T06:26:15;101124.28;;;15.55;56.01
34584;BME280;53696;52.738;4.752;2023-04-28T06:28:44;101123.41;;;15.55;55.99
34584;BME280;53696;52.738;4.752;2023-04-28T06:31:12;101123.41;;;15.55;56.46
34584;BME280;53696;52.738;4.752;2023-04-28T06:33:41;101114.50;;;15.56;56.43
34584;BME280;53696;52.738;4.752;2023-04-28T06:36:09;101120.69;;;15.56;56.25
34584;BME280;53696;52.738;4.752;2023-04-28T06:38:39;101106.50;;;15.56;56.63
34584;BME280;53696;52.738;4.752;2023-04-28T06:41:08;101108.28;;;15.55;56.40
34584;BME280;53696;52.738;4.752;2023-04-28T06:43:37;101105.66;;;15.54;56.39
34584;BME280;53696;52.738;4.752;2023-04-28T06:46:05;101100.31;;;15.54;56.15
34584;BME280;53696;52.738;4.752;2023-04-28T06:48:33;101099.47;;;15.53;56.01
34584;BME280;53696;52.738;4.752;2023-04-28T06:51:03;101101.19;;;15.54;56.18
34584;BME280;53696;52.738;4.752;2023-04-28T06:53:31;101099.47;;;15.53;56.45
34584;BME280;53696;52.738;4.752;2023-04-28T06:55:59;101092.38;;;15.52;56.59
34584;BME280;53696;52.738;4.752;2023-04-28T06:58:28;101079.91;;;15.53;56.55
34584;BME280;53696;52.738;4.752;2023-04-28T07:00:56;101069.28;;;15.51;56.15
34584;BME280;53696;52.738;4.752;2023-04-28T07:03:25;101057.72;;;15.52;56.53
34584;BME280;53696;52.738;4.752;2023-04-28T07:05:56;101053.28;;;15.51;56.46
34584;BME280;53696;52.738;4.752;2023-04-28T07:08:26;101047.00;;;15.54;56.26
34584;BME280;53696;52.738;4.752;2023-04-28T07:10:56;101045.19;;;15.54;56.29
34584;BME280;53696;52.738;4.752;2023-04-28T07:13:24;101045.19;;;15.56;56.60
34584;BME280;53696;52.738;4.752;2023-04-28T07:15:52;101047.81;;;15.57;56.19
34584;BME280;53696;52.738;4.752;2023-04-28T07:18:20;101046.91;;;15.58;56.26
34584;BME280;53696;52.738;4.752;2023-04-28T07:20:48;101044.22;;;15.58;56.45
34584;BME280;53696;52.738;4.752;2023-04-28T07:23:16;101045.09;;;15.59;56.46
34584;BME280;53696;52.738;4.752;2023-04-28T07:25:45;101045.97;;;15.59;56.31
34584;BME280;53696;52.738;4.752;2023-04-28T07:28:13;101042.41;;;15.60;56.16
34584;BME280;53696;52.738;4.752;2023-04-28T07:30:41;101027.31;;;15.59;56.43
34584;BME280;53696;52.738;4.752;2023-04-28T07:33:08;101025.50;;;15.60;56.17
34584;BME280;53696;52.738;4.752;2023-04-28T07:35:37;101026.41;;;15.60;56.15
34584;BME280;53696;52.738;4.752;2023-04-28T07:38:05;101043.28;;;15.61;56.14
34584;BME280;53696;52.738;4.752;2023-04-28T07:40:33;101042.34;;;15.62;56.53
34584;BME280;53696;52.738;4.752;2023-04-28T07:43:02;101043.28;;;15.61;56.09
34584;BME280;53696;52.738;4.752;2023-04-28T07:45:30;101044.16;;;15.61;56.07
34584;BME280;53696;52.738;4.752;2023-04-28T07:47:58;101037.88;;;15.62;56.35
34584;BME280;53696;52.738;4.752;2023-04-28T07:50:26;101041.44;;;15.63;56.39
34584;BME280;53696;52.738;4.752;2023-04-28T07:52:54;101034.31;;;15.63;56.58
34584;BME280;53696;52.738;4.752;2023-04-28T07:55:23;101045.88;;;15.62;56.36
34584;BME280;53696;52.738;4.752;2023-04-28T07:57:51;101045.88;;;15.62;56.48
34584;BME280;53696;52.738;4.752;2023-04-28T08:00:21;101048.56;;;15.62;56.49
34584;BME280;53696;52.738;4.752;2023-04-28T08:02:49;101042.31;;;15.63;56.11
34584;BME280;53696;52.738;4.752;2023-04-28T08:05:18;101035.22;;;15.62;56.07
34584;BME280;53696;52.738;4.752;2023-04-28T08:07:46;101029.88;;;15.62;56.36
34584;BME280;53696;52.738;4.752;2023-04-28T08:10:14;101036.16;;;15.61;56.25
34584;BME280;53696;52.738;4.752;2023-04-28T08:12:42;101033.50;;;15.61;56.61
34584;BME280;53696;52.738;4.752;2023-04-28T08:15:11;101037.88;;;15.62;56.62
34584;BME280;53696;52.738;4.752;2023-04-28T08:17:41;101033.50;;;15.61;56.75
34584;BME280;53696;52.738;4.752;2023-04-28T08:20:10;101033.50;;;15.61;56.08
34584;BME280;53696;52.738;4.752;2023-04-28T08:22:41;101029.88;;;15.62;56.29
34584;BME280;53696;52.738;4.752;2023-04-28T08:25:09;101022.84;;;15.61;56.71
34584;BME280;53696;52.738;4.752;2023-04-28T08:27:37;101014.84;;;15.61;56.43
34584;BME280;53696;52.738;4.752;2023-04-28T08:30:06;101015.75;;;15.60;56.61
34584;BME280;53696;52.738;4.752;2023-04-28T08:32:34;101016.59;;;15.61;56.74
34584;BME280;53696;52.738;4.752;2023-04-28T08:35:05;101013.06;;;15.60;56.66
34584;BME280;53696;52.738;4.752;2023-04-28T08:37:33;101022.84;;;15.61;56.81
34584;BME280;53696;52.738;4.752;2023-04-28T08:40:01;101017.50;;;15.61;56.43
34584;BME280;53696;52.738;4.752;2023-04-28T08:42:35;101021.06;;;15.60;56.47
34584;BME280;53696;52.738;4.752;2023-04-28T08:45:04;101013.06;;;15.60;56.83
34584;BME280;53696;52.738;4.752;2023-04-28T08:47:34;101012.16;;;15.61;56.33
34584;BME280;53696;52.738;4.752;2023-04-28T08:50:05;101006.84;;;15.61;56.52
34584;BME280;53696;52.738;4.752;2023-04-28T08:52:34;101013.03;;;15.62;56.52
34584;BME280;53696;52.738;4.752;2023-04-28T08:55:05;101004.16;;;15.61;56.68
34584;BME280;53696;52.738;4.752;2023-04-28T08:57:37;101001.50;;;15.61;56.91
34584;BME280;53696;52.738;4.752;2023-04-28T09:00:07;101002.31;;;15.63;56.32
34584;BME280;53696;52.738;4.752;2023-04-28T09:02:35;101004.97;;;15.63;56.54
34584;BME280;53696;52.738;4.752;2023-04-28T09:05:07;100995.22;;;15.64;56.34
34584;BME280;53696;52.738;4.752;2023-04-28T09:07:36;100994.31;;;15.63;56.79
34584;BME280;53696;52.738;4.752;2023-04-28T09:10:15;100993.41;;;15.64;56.50
34584;BME280;53696;52.738;4.752;2023-04-28T09:12:43;100997.88;;;15.64;56.46
34584;BME280;53696;52.738;4.752;2023-04-28T09:15:25;100992.53;;;15.64;56.31
34584;BME280;53696;52.738;4.752;2023-04-28T09:17:56;100995.22;;;15.64;56.80
34584;BME280;53696;52.738;4.752;2023-04-28T09:20:27;101004.97;;;15.63;56.59
34584;BME280;53696;52.738;4.752;2023-04-28T09:22:56;100998.78;;;15.63;56.65
34584;BME280;53696;52.738;4.752;2023-04-28T09:25:38;101000.56;;;15.62;56.48
34584;BME280;53696;52.738;4.752;2023-04-28T09:28:18;100992.56;;;15.62;56.92
34584;BME280;53696;52.738;4.752;2023-04-28T09:30:47;100999.75;;;15.60;56.62
34584;BME280;53696;52.738;4.752;2023-04-28T09:33:15;100997.91;;;15.62;56.95
34584;BME280;53696;52.738;4.752;2023-04-28T09:35:44;100991.69;;;15.62;56.73
34584;BME280;53696;52.738;4.752;2023-04-28T09:38:14;100991.69;;;15.62;56.62
34584;BME280;53696;52.738;4.752;2023-04-28T09:40:54;100988.16;;;15.61;57.10
34584;BME280;53696;52.738;4.752;2023-04-28T09:43:26;100990.84;;;15.61;57.05
34584;BME280;53696;52.738;4.752;2023-04-28T09:45:55;100993.50;;;15.61;56.99
34584;BME280;53696;52.738;4.752;2023-04-28T09:48:31;100988.16;;;15.61;56.78
34584;BME280;53696;52.738;4.752;2023-04-28T09:51:01;100980.16;;;15.61;57.07
34584;BME280;53696;52.738;4.752;2023-04-28T09:53:29;100984.66;;;15.59;57.16
34584;BME280;53696;52.738;4.752;2023-04-28T09:55:59;100983.75;;;15.60;57.10
34584;BME280;53696;52.738;4.752;2023-04-28T09:58:28;100987.28;;;15.61;57.13
34584;BME280;53696;52.738;4.752;2023-04-28T10:00:59;100977.53;;;15.60;57.37
34584;BME280;53696;52.738;4.752;2023-04-28T10:03:28;100976.66;;;15.59;56.95
34584;BME280;53696;52.738;4.752;2023-04-28T10:05:57;100974.84;;;15.61;57.06
34584;BME280;53696;52.738;4.752;2023-04-28T10:08:28;100973.09;;;15.60;57.63
34584;BME280;53696;52.738;4.752;2023-04-28T10:10:56;100973.09;;;15.60;57.56
34584;BME280;53696;52.738;4.752;2023-04-28T10:13:25;100978.41;;;15.60;57.11
34584;BME280;53696;52.738;4.752;2023-04-28T10:15:53;100965.09;;;15.60;57.50
34584;BME280;53696;52.738;4.752;2023-04-28T10:18:24;100967.75;;;15.60;57.13
34584;BME280;53696;52.738;4.752;2023-04-28T10:20:55;100973.09;;;15.60;57.57
34584;BME280;53696;52.738;4.752;2023-04-28T10:23:45;100973.03;;;15.62;57.50
34584;BME280;53696;52.738;4.752;2023-04-28T10:26:17;100971.22;;;15.62;57.68
34584;BME280;53696;52.738;4.752;2023-04-28T10:28:46;100972.03;;;15.66;57.63
34584;BME280;53696;52.738;4.752;2023-04-28T10:31:16;100972.81;;;15.70;57.48
34584;BME280;53696;52.738;4.752;2023-04-28T10:33:47;100971.00;;;15.72;57.66
34584;BME280;53696;52.738;4.752;2023-04-28T10:36:46;100975.34;;;15.76;57.82
34584;BME280;53696;52.738;4.752;2023-04-28T10:39:15;100970.75;;;15.81;58.12
34584;BME280;53696;52.738;4.752;2023-04-28T10:41:44;100971.44;;;15.89;58.05
34584;BME280;53696;52.738;4.752;2023-04-28T10:44:40;100970.22;;;16.01;57.85
34584;BME280;53696;52.738;4.752;2023-04-28T10:47:10;100963.75;;;16.10;57.94
34584;BME280;53696;52.738;4.752;2023-04-28T10:50:09;100961.69;;;16.20;58.16
34584;BME280;53696;52.738;4.752;2023-04-28T10:52:50;100964.06;;;16.31;57.85
34584;BME280;53696;52.738;4.752;2023-04-28T10:55:32;100962.88;;;16.41;57.61
34584;BME280;53696;52.738;4.752;2023-04-28T10:58:30;100960.81;;;16.52;57.73
34584;BME280;53696;52.738;4.752;2023-04-28T11:01:26;100955.13;;;16.63;57.39
34584;BME280;53696;52.738;4.752;2023-04-28T11:03:56;100958.34;;;16.74;57.53
34584;BME280;53696;52.738;4.752;2023-04-28T11:06:31;100955.34;;;16.85;57.61
34584;BME280;53696;52.738;4.752;2023-04-28T11:09:01;100954.13;;;16.96;57.28
34584;BME280;53696;52.738;4.752;2023-04-28T11:11:31;100948.50;;;17.05;57.49
34584;BME280;53696;52.738;4.752;2023-04-28T11:17:07;100946.97;;;17.25;56.89
34584;BME280;53696;52.738;4.752;2023-04-28T11:19:38;100938.63;;;17.34;57.09
34584;BME280;53696;52.738;4.752;2023-04-28T11:22:13;100938.56;;;17.37;56.79
34584;BME280;53696;52.738;4.752;2023-04-28T11:24:53;100930.53;;;17.37;56.97
34584;BME280;53696;52.738;4.752;2023-04-28T11:27:24;100932.94;;;17.45;57.02
34584;BME280;53696;52.738;4.752;2023-04-28T11:29:53;100934.41;;;17.55;57.39
34584;BME280;53696;52.738;4.752;2023-04-28T11:32:25;100931.34;;;17.66;56.88
34584;BME280;53696;52.738;4.752;2023-04-28T11:34:54;100933.88;;;17.71;56.97
34584;BME280;53696;52.738;4.752;2023-04-28T11:37:21;100936.56;;;17.69;57.27
34584;BME280;53696;52.738;4.752;2023-04-28T11:39:50;100946.97;;;17.78;56.94
34584;BME280;53696;52.738;4.752;2023-04-28T11:42:18;100932.41;;;17.87;56.97
34584;BME280;53696;52.738;4.752;2023-04-28T11:44:51;100928.56;;;17.94;57.17
34584;BME280;53696;52.738;4.752;2023-04-28T11:47:29;100930.94;;;18.02;56.94
34584;BME280;53696;52.738;4.752;2023-04-28T11:49:58;100935.97;;;18.11;57.08
34584;BME280;53696;52.738;4.752;2023-04-28T11:52:27;100937.56;;;18.17;56.80
34584;BME280;53696;52.738;4.752;2023-04-28T11:54:55;100939.94;;;18.25;56.85
34584;BME280;53696;52.738;4.752;2023-04-28T11:57:25;100933.47;;;18.30;57.11
34584;BME280;53696;52.738;4.752;2023-04-28T12:00:11;100936.75;;;18.39;57.12
34584;BME280;53696;52.738;4.752;2023-04-28T12:02:39;100930.41;;;18.41;56.72
34584;BME280;53696;52.738;4.752;2023-04-28T12:05:08;100933.91;;;18.43;56.64
34584;BME280;53696;52.738;4.752;2023-04-28T12:07:40;100932.97;;;18.44;56.90
34584;BME280;53696;52.738;4.752;2023-04-28T12:10:10;100922.25;;;18.44;57.00
34584;BME280;53696;52.738;4.752;2023-04-28T12:12:39;100926.72;;;18.44;57.11
34584;BME280;53696;52.738;4.752;2023-04-28T12:15:19;100930.28;;;18.44;57.28
34584;BME280;53696;52.738;4.752;2023-04-28T12:17:49;100925.78;;;18.45;57.51
34584;BME280;53696;52.738;4.752;2023-04-28T12:20:34;100929.31;;;18.45;57.90
34584;BME280;53696;52.738;4.752;2023-04-28T12:23:02;100931.91;;;18.48;57.69
34584;BME280;53696;52.738;4.752;2023-04-28T12:25:31;100926.53;;;18.48;57.81
34584;BME280;53696;52.738;4.752;2023-04-28T12:28:02;100928.28;;;18.50;58.01
34584;BME280;53696;52.738;4.752;2023-04-28T12:30:33;100932.72;;;18.51;57.75
34584;BME280;53696;52.738;4.752;2023-04-28T12:33:04;100940.75;;;18.51;57.80
34584;BME280;53696;52.738;4.752;2023-04-28T12:35:32;100936.25;;;18.51;57.78
34584;BME280;53696;52.738;4.752;2023-04-28T12:38:00;100937.16;;;18.52;58.35
34584;BME280;53696;52.738;4.752;2023-04-28T12:40:28;100934.47;;;18.52;58.19
34584;BME280;53696;52.738;4.752;2023-04-28T12:42:56;100941.59;;;18.53;58.31
34584;BME280;53696;52.738;4.752;2023-04-28T12:45:23;100941.50;;;18.54;58.17
34584;BME280;53696;52.738;4.752;2023-04-28T12:47:53;100939.69;;;18.55;58.24
34584;BME280;53696;52.738;4.752;2023-04-28T12:50:22;100939.69;;;18.56;58.33
34584;BME280;53696;52.738;4.752;2023-04-28T12:52:51;100944.06;;;18.59;58.35
34584;BME280;53696;52.738;4.752;2023-04-28T12:55:19;100935.94;;;18.60;58.46
34584;BME280;53696;52.738;4.752;2023-04-28T12:57:46;100939.44;;;18.62;58.23
34584;BME280;53696;52.738;4.752;2023-04-28T13:00:15;100933.09;;;18.65;58.28
34584;BME280;53696;52.738;4.752;2023-04-28T13:02:43;100943.69;;;18.68;58.44
34584;BME280;53696;52.738;4.752;2023-04-28T13:05:13;100940.06;;;18.69;58.15